Time;durP1;ratioP1;P1;durP2;ratioP2;P2;SDS_P1;SDS_P2;PMS_P1;PMS_P2;Temp;Humidity;BMP_temperature;BMP_pressure;BME280_temperature;BME280_humidity;BME280_pressure;Samples;Min_cycle;Max_cycle;Signal;HPM_P1;HPM_P2
2023/08/30 00:01:13;;;;;;;25.17;22.42;;;;;;;15.60;100.00;100185.53;6159582;23;20026;-84
2023/08/30 00:03:43;;;;;;;25.65;22.73;;;;;;;15.45;100.00;100155.88;6159998;23;20475;-83
2023/08/30 00:06:10;;;;;;;26.70;22.42;;;;;;;15.51;100.00;100160.34;6158998;23;20119;-84
2023/08/30 00:08:41;;;;;;;25.58;22.98;;;;;;;15.58;100.00;100154.13;6159716;23;20505;-84
2023/08/30 00:11:15;;;;;;;28.70;22.38;;;;;;;15.72;100.00;100170.75;6158798;23;20014;-85
2023/08/30 00:16:30;;;;;;;25.67;22.98;;;;;;;15.70;100.00;100156.94;6159439;23;20021;-84
2023/08/30 00:19:01;;;;;;;26.40;23.17;;;;;;;15.58;99.92;100169.94;6159498;23;20057;-84
2023/08/30 00:21:28;;;;;;;27.98;24.20;;;;;;;15.41;100.00;100168.63;6162829;23;20074;-83
2023/08/30 00:24:04;;;;;;;30.67;24.48;;;;;;;15.47;100.00;100170.47;6167080;23;20189;-84
2023/08/30 00:26:35;;;;;;;27.95;24.75;;;;;;;15.46;100.00;100158.31;6164715;23;20032;-84
2023/08/30 00:29:12;;;;;;;30.58;23.30;;;;;;;15.53;100.00;100169.69;6163485;23;20026;-84
2023/08/30 00:31:52;;;;;;;28.65;25.30;;;;;;;15.61;100.00;100184.50;6163175;23;20357;-84
2023/08/30 00:34:20;;;;;;;25.70;23.02;;;;;;;15.55;100.00;100180.03;6164020;23;20052;-84
2023/08/30 00:36:51;;;;;;;29.33;23.55;;;;;;;15.35;100.00;100156.25;6166063;23;20096;-83
2023/08/30 00:39:24;;;;;;;27.75;23.58;;;;;;;15.23;100.00;100145.44;6168336;23;20028;-82
2023/08/30 00:41:54;;;;;;;25.10;22.40;;;;;;;15.37;100.00;100151.59;6163486;23;20077;-83
2023/08/30 00:44:23;;;;;;;24.50;21.80;;;;;;;15.27;100.00;100140.59;6164545;23;20096;-83
2023/08/30 00:46:53;;;;;;;25.08;22.48;;;;;;;15.56;100.00;100181.66;6165251;23;20017;-84
2023/08/30 00:49:45;;;;;;;27.88;22.17;;;;;;;15.41;100.00;100147.53;6168326;23;20025;-82
2023/08/30 00:52:34;;;;;;;24.50;21.80;;;;;;;15.54;100.00;100150.22;6166907;23;20029;-82
2023/08/30 00:58:59;;;;;;;23.23;20.83;;;;;;;15.73;100.00;100172.38;6176439;23;20073;-83
2023/08/30 01:15:26;;;;;;;23.23;19.50;;;;;;;15.41;100.00;100115.91;6072111;23;20037;-85
2023/08/30 01:20:48;;;;;;;21.25;18.55;;;;;;;15.56;100.00;100145.59;6175616;23;20017;-82
2023/08/30 01:23:31;;;;;;;24.85;18.92;;;;;;;15.29;100.00;100120.13;6202764;23;20069;-84
2023/08/30 02:11:23;;;;;;;15.45;13.68;;;;;;;14.53;100.00;100135.22;6054735;23;20080;-81
2023/08/30 02:15:01;;;;;;;14.48;12.90;;;;;;;14.50;100.00;100146.13;5965336;24;20021;-83
2023/08/30 02:37:36;;;;;;;15.80;14.20;;;;;;;13.98;100.00;100128.13;6036233;23;20027;-85
2023/08/30 02:44:26;;;;;;;23.42;15.30;;;;;;;14.03;100.00;100152.84;6018944;23;20552;-84
2023/08/30 02:49:26;;;;;;;18.35;15.93;;;;;;;13.80;100.00;100134.63;6159801;23;20021;-79
2023/08/30 02:51:53;;;;;;;20.77;15.52;;;;;;;13.80;100.00;100131.19;6156950;23;20071;-78
2023/08/30 02:54:19;;;;;;;16.75;14.88;;;;;;;13.80;100.00;100137.25;6155335;23;20072;-79
2023/08/30 02:56:47;;;;;;;23.20;16.98;;;;;;;13.82;100.00;100134.44;6156217;23;20462;-79
2023/08/30 02:59:14;;;;;;;21.92;17.30;;;;;;;13.64;100.00;100100.72;6156657;23;20351;-79
2023/08/30 03:01:41;;;;;;;19.75;16.60;;;;;;;13.74;100.00;100124.06;6155203;23;20025;-79
2023/08/30 03:04:07;;;;;;;21.98;17.30;;;;;;;13.72;100.00;100126.88;6156486;23;20076;-77
2023/08/30 03:06:34;;;;;;;23.95;17.30;;;;;;;13.68;100.00;100122.22;6157400;23;20025;-78
2023/08/30 03:09:01;;;;;;;20.00;17.90;;;;;;;13.71;100.00;100119.16;6158653;23;20021;-78
2023/08/30 03:11:28;;;;;;;20.25;17.27;;;;;;;13.64;100.00;100111.25;6162650;23;20044;-82
2023/08/30 03:13:56;;;;;;;19.45;17.35;;;;;;;13.65;100.00;100117.31;6161896;23;20060;-81
2023/08/30 03:16:23;;;;;;;20.90;17.65;;;;;;;13.56;100.00;100120.06;6163597;23;20025;-79
2023/08/30 03:18:50;;;;;;;20.00;17.90;;;;;;;13.57;100.00;100121.69;6165388;23;20080;-78
2023/08/30 03:21:17;;;;;;;18.80;16.80;;;;;;;13.57;100.00;100116.44;6170505;23;20025;-78
2023/08/30 03:23:44;;;;;;;23.08;18.15;;;;;;;13.58;100.00;100114.63;6172122;23;20032;-78
2023/08/30 03:26:11;;;;;;;20.45;18.23;;;;;;;13.60;100.00;100118.69;6163146;23;20032;-81
2023/08/30 03:28:38;;;;;;;22.90;18.38;;;;;;;13.54;100.00;100116.81;6155694;23;20061;-79
2023/08/30 03:31:14;;;;;;;20.50;17.95;;;;;;;13.53;100.00;100109.13;6156043;23;20363;-79
2023/08/30 03:33:41;;;;;;;22.20;18.63;;;;;;;13.45;100.00;100112.69;6156346;23;20100;-78
2023/08/30 03:36:08;;;;;;;22.00;17.65;;;;;;;13.41;100.00;100110.59;6157212;23;20025;-80
2023/08/30 03:38:34;;;;;;;20.15;17.77;;;;;;;13.35;100.00;100106.91;6159200;23;20021;-78
2023/08/30 03:41:01;;;;;;;23.48;19.23;;;;;;;13.27;100.00;100110.47;6164112;23;20053;-81
2023/08/30 03:43:28;;;;;;;22.83;18.92;;;;;;;13.28;100.00;100100.78;6161393;23;20355;-78
2023/08/30 03:45:54;;;;;;;24.02;19.10;;;;;;;13.24;100.00;100104.75;6158206;23;20408;-78
2023/08/30 03:48:22;;;;;;;21.23;18.33;;;;;;;13.21;100.00;100108.59;6158387;23;20025;-76
2023/08/30 03:50:49;;;;;;;21.52;18.25;;;;;;;13.20;100.00;100109.59;6159421;23;20065;-79
2023/08/30 03:53:16;;;;;;;21.92;18.63;;;;;;;13.12;100.00;100104.44;6161386;23;20057;-81
2023/08/30 03:55:42;;;;;;;21.00;17.70;;;;;;;13.11;100.00;100109.88;6161257;23;20418;-79
2023/08/30 03:58:09;;;;;;;23.00;18.50;;;;;;;13.10;100.00;100109.06;6162393;23;20025;-79
2023/08/30 04:00:37;;;;;;;22.65;18.27;;;;;;;13.10;100.00;100108.22;6159713;23;20097;-78
2023/08/30 04:03:04;;;;;;;22.67;19.65;;;;;;;13.08;100.00;100104.97;6161306;23;20049;-80
2023/08/30 04:05:34;;;;;;;23.45;20.20;;;;;;;13.06;100.00;100104.34;6160014;23;20339;-79
2023/08/30 04:08:02;;;;;;;22.25;19.50;;;;;;;13.03;100.00;100102.09;6161453;23;20132;-79
2023/08/30 04:10:29;;;;;;;22.75;19.25;;;;;;;13.01;100.00;100098.84;6158409;23;20076;-80
2023/08/30 04:12:55;;;;;;;26.20;19.73;;;;;;;12.99;100.00;100098.19;6159379;23;20049;-78
2023/08/30 04:15:22;;;;;;;25.55;19.65;;;;;;;12.99;100.00;100106.06;6161768;23;20063;-79
2023/08/30 04:17:48;;;;;;;25.00;18.80;;;;;;;13.03;100.00;100102.09;6160867;23;20049;-76
2023/08/30 04:20:15;;;;;;;23.85;19.20;;;;;;;13.05;100.00;100094.84;6159333;23;20352;-80
2023/08/30 04:22:43;;;;;;;28.65;21.00;;;;;;;13.04;100.00;100094.03;6160138;23;20055;-80
2023/08/30 04:25:10;;;;;;;22.83;19.60;;;;;;;13.03;100.00;100099.47;6160294;23;20057;-81
2023/08/30 04:27:36;;;;;;;23.02;19.20;;;;;;;13.07;100.00;100092.84;6159757;23;20025;-79
2023/08/30 04:30:04;;;;;;;24.40;19.88;;;;;;;13.07;100.00;100092.84;6158846;23;20045;-80
2023/08/30 04:32:30;;;;;;;22.90;18.85;;;;;;;13.11;100.00;100088.84;6159524;23;20057;-78
2023/08/30 04:34:57;;;;;;;21.75;18.20;;;;;;;13.11;100.00;100088.84;6159012;23;20029;-79
2023/08/30 04:37:23;;;;;;;20.85;18.10;;;;;;;13.04;100.00;100087.97;6159851;23;20064;-79
2023/08/30 04:39:51;;;;;;;20.88;17.70;;;;;;;13.12;100.00;100091.28;6161685;23;20041;-79
2023/08/30 04:42:18;;;;;;;21.80;17.90;;;;;;;13.11;100.00;100086.22;6161674;23;20030;-81
2023/08/30 04:44:45;;;;;;;20.40;17.45;;;;;;;13.17;100.00;100088.13;6162138;23;20049;-79
2023/08/30 04:47:11;;;;;;;21.70;17.13;;;;;;;13.19;100.00;100091.41;6160739;23;20053;-78
2023/08/30 04:49:38;;;;;;;25.50;17.80;;;;;;;13.18;100.00;100082.69;6159376;23;20049;-78
2023/08/30 04:52:06;;;;;;;19.27;17.20;;;;;;;13.19;100.00;100091.41;6159393;23;20100;-80
2023/08/30 04:54:32;;;;;;;20.75;17.33;;;;;;;13.14;100.00;100083.22;6158375;23;20100;-82
2023/08/30 04:57:00;;;;;;;18.92;16.75;;;;;;;13.14;100.00;100088.47;6160582;23;20025;-78
2023/08/30 04:59:27;;;;;;;20.38;17.23;;;;;;;13.11;100.00;100088.84;6159882;23;20025;-82
2023/08/30 05:01:54;;;;;;;19.85;16.83;;;;;;;13.09;100.00;100085.59;6159586;23;20057;-79
2023/08/30 05:04:21;;;;;;;20.42;17.33;;;;;;;13.11;100.00;100088.84;6161227;23;20049;-82
2023/08/30 05:06:48;;;;;;;20.52;17.80;;;;;;;13.10;100.00;100087.22;6160170;23;20044;-80
2023/08/30 05:09:15;;;;;;;20.23;16.55;;;;;;;13.10;100.00;100087.22;6160483;23;20018;-78
2023/08/30 05:11:43;;;;;;;21.10;16.83;;;;;;;13.08;100.00;100083.97;6159220;23;20021;-78
2023/08/30 05:14:12;;;;;;;20.40;17.58;;;;;;;13.07;100.00;100071.81;6159261;23;20351;-82
2023/08/30 05:16:40;;;;;;;23.48;17.58;;;;;;;13.11;100.00;100070.47;6160393;23;20384;-78
2023/08/30 05:19:07;;;;;;;20.83;16.90;;;;;;;13.15;100.00;100069.91;6158154;23;20014;-77
2023/08/30 05:21:34;;;;;;;19.98;16.73;;;;;;;13.18;100.00;100081.88;6159204;23;20018;-78
2023/08/30 05:24:01;;;;;;;21.13;17.30;;;;;;;13.14;100.00;100070.09;6161816;23;20021;-82
2023/08/30 05:26:28;;;;;;;19.95;16.70;;;;;;;13.20;100.00;100069.38;6159556;23;20017;-83
2023/08/30 05:28:55;;;;;;;19.20;16.73;;;;;;;13.27;100.00;100080.75;6159511;23;20089;-81
2023/08/30 05:31:24;;;;;;;20.83;16.88;;;;;;;13.34;100.00;100073.75;6160568;23;20044;-85
2023/08/30 05:33:55;;;;;;;20.67;16.02;;;;;;;13.36;100.00;100069.13;6159153;23;20481;-80
2023/08/30 05:36:24;;;;;;;25.00;16.30;;;;;;;13.38;100.00;100067.13;6160490;23;20021;-80
2023/08/30 05:38:51;;;;;;;17.85;15.95;;;;;;;13.36;100.00;100057.78;6156288;23;20030;-80
2023/08/30 05:41:23;;;;;;;17.67;15.35;;;;;;;13.48;100.00;100043.97;6172123;23;20368;-80
2023/08/30 05:43:50;;;;;;;20.95;15.40;;;;;;;13.47;100.00;100042.34;6166165;23;20018;-79
2023/08/30 05:46:17;;;;;;;17.27;15.48;;;;;;;13.35;100.00;100043.84;6161050;23;20021;-79
2023/08/30 05:48:46;;;;;;;16.65;14.63;;;;;;;13.47;100.00;100042.34;6161239;23;20018;-77
2023/08/30 05:51:12;;;;;;;18.10;15.07;;;;;;;13.73;100.00;100040.91;6162202;23;20025;-80
2023/08/30 05:53:39;;;;;;;19.48;15.57;;;;;;;13.83;100.00;100042.22;6163247;23;20017;-81
2023/08/30 05:56:07;;;;;;;19.00;15.38;;;;;;;13.86;100.00;100041.03;6162730;23;20391;-79
2023/08/30 05:58:35;;;;;;;17.55;15.35;;;;;;;13.87;100.00;100029.50;6163572;23;20028;-81
2023/08/30 06:01:03;;;;;;;20.90;15.70;;;;;;;14.16;100.00;100026.66;6162694;23;20014;-79
2023/08/30 06:03:30;;;;;;;17.10;14.20;;;;;;;14.56;100.00;100026.88;6164431;23;20089;-79
2023/08/30 06:05:58;;;;;;;15.75;13.77;;;;;;;14.74;100.00;100013.16;6164954;23;20022;-82
2023/08/30 06:08:25;;;;;;;15.07;12.57;;;;;;;15.21;100.00;100010.41;6166607;23;20096;-77
2023/08/30 06:10:52;;;;;;;17.33;12.13;;;;;;;15.81;98.55;99997.25;6167141;23;20020;-79
2023/08/30 06:13:19;;;;;;;19.13;12.13;;;;;;;16.17;96.00;99980.94;6163128;23;20025;-79
2023/08/30 06:15:46;;;;;;;14.05;11.88;;;;;;;16.55;93.54;99971.22;6164952;23;20474;-80
2023/08/30 06:18:12;;;;;;;12.27;10.48;;;;;;;17.09;91.12;99967.28;6165582;23;20419;-81
2023/08/30 06:20:41;;;;;;;15.45;11.10;;;;;;;17.48;88.36;99957.41;6165366;23;20024;-79
2023/08/30 06:23:10;;;;;;;13.77;10.32;;;;;;;17.96;86.28;99941.66;6166413;23;20052;-81
2023/08/30 06:25:37;;;;;;;13.63;10.25;;;;;;;18.21;83.77;99939.75;6165584;23;20311;-81
2023/08/30 06:28:04;;;;;;;12.10;10.38;;;;;;;18.65;82.37;99934.31;6163662;23;20025;-81
2023/08/30 06:30:31;;;;;;;13.48;10.25;;;;;;;18.16;82.02;99936.97;6159827;23;20077;-79
2023/08/30 06:32:58;;;;;;;15.23;10.40;;;;;;;17.69;83.29;99950.94;6162246;23;20048;-80
2023/08/30 06:35:25;;;;;;;13.40;10.32;;;;;;;17.56;84.46;99963.22;6163776;23;20025;-79
2023/08/30 06:37:52;;;;;;;14.00;10.95;;;;;;;17.18;86.41;99978.41;6163420;23;20036;-80
2023/08/30 06:40:20;;;;;;;12.93;10.77;;;;;;;16.84;87.78;99980.47;6163476;23;20026;-80
2023/08/30 06:42:46;;;;;;;17.20;11.10;;;;;;;17.09;87.36;99979.69;6162778;23;20049;-78
2023/08/30 06:45:13;;;;;;;15.52;10.32;;;;;;;17.10;87.25;99986.59;6161841;23;20026;-78
2023/08/30 06:47:39;;;;;;;11.32;9.90;;;;;;;17.22;86.34;99967.19;6156884;23;20025;-79
2023/08/30 06:50:09;;;;;;;10.60;9.48;;;;;;;17.12;85.32;99953.63;6155931;23;20434;-79
2023/08/30 06:52:36;;;;;;;14.32;10.77;;;;;;;16.82;85.34;99944.69;6156669;23;20021;-80
2023/08/30 06:55:03;;;;;;;12.32;10.70;;;;;;;16.75;85.89;99944.75;6159696;23;20072;-78
2023/08/30 06:57:31;;;;;;;12.98;11.50;;;;;;;16.71;86.64;99950.66;6163547;23;20021;-79
2023/08/30 06:59:59;;;;;;;16.80;11.32;;;;;;;16.81;87.25;99953.66;6164698;23;20048;-80
2023/08/30 07:02:27;;;;;;;20.15;10.70;;;;;;;17.84;84.56;99924.94;6164841;23;20021;-79
2023/08/30 07:04:54;;;;;;;16.33;11.00;;;;;;;18.64;80.78;99907.03;6169958;23;20040;-79
2023/08/30 07:07:21;;;;;;;13.75;9.57;;;;;;;19.68;77.38;99907.38;6169702;23;20033;-80
2023/08/30 07:09:47;;;;;;;10.65;9.20;;;;;;;20.16;74.73;99897.22;6168277;23;20033;-80
2023/08/30 07:12:14;;;;;;;13.60;9.18;;;;;;;20.52;72.90;99895.22;6161253;23;20064;-79
2023/08/30 07:14:43;;;;;;;12.77;9.25;;;;;;;19.72;73.29;99900.56;6160622;23;20048;-78
2023/08/30 07:17:09;;;;;;;12.32;8.93;;;;;;;19.80;73.84;99905.50;6160417;23;20517;-80
2023/08/30 07:19:36;;;;;;;11.65;9.18;;;;;;;18.70;75.77;99918.56;6159970;23;20022;-78
2023/08/30 07:22:04;;;;;;;12.80;9.25;;;;;;;18.54;77.60;99933.22;6159004;23;20368;-79
2023/08/30 07:24:31;;;;;;;17.58;10.02;;;;;;;18.52;77.74;99924.69;6158226;23;20101;-79
2023/08/30 07:26:57;;;;;;;14.20;9.25;;;;;;;19.65;76.06;99918.44;6154855;23;20017;-79
2023/08/30 07:29:24;;;;;;;12.20;9.27;;;;;;;20.19;74.38;99902.03;6155820;23;20018;-79
2023/08/30 07:31:53;;;;;;;14.60;8.93;;;;;;;20.68;71.95;99897.13;6159448;23;20021;-78
2023/08/30 07:34:20;;;;;;;11.63;8.32;;;;;;;21.09;70.49;99898.59;6160346;23;20021;-79
2023/08/30 07:36:47;;;;;;;9.90;8.10;;;;;;;21.35;69.05;99891.81;6159620;23;20100;-79
2023/08/30 07:39:14;;;;;;;14.30;7.88;;;;;;;21.72;68.31;99875.28;6154741;23;20022;-79
2023/08/30 07:41:41;;;;;;;14.13;7.63;;;;;;;21.69;68.45;99899.72;6153770;23;20523;-79
2023/08/30 07:44:08;;;;;;;11.52;7.30;;;;;;;21.71;67.31;99876.34;6158980;23;20080;-80
2023/08/30 07:46:35;;;;;;;13.60;7.25;;;;;;;22.05;66.14;99871.69;6159974;23;20022;-82
2023/08/30 07:49:04;;;;;;;8.88;7.18;;;;;;;22.12;64.82;99878.44;6169089;23;20018;-81
2023/08/30 07:51:31;;;;;;;9.40;6.95;;;;;;;22.67;65.12;99888.06;6169917;23;20025;-82
2023/08/30 07:54:12;;;;;;;;;;;;;;;;;;;;;
2023/08/30 07:57:07;;;;;;;24.55;7.75;;;;;;;23.31;63.82;99888.00;6162120;23;20036;-82
2023/08/30 08:03:04;;;;;;;12.52;6.60;;;;;;;23.56;62.96;99857.22;6096714;23;20022;-90
2023/08/30 08:05:46;;;;;;;9.65;6.15;;;;;;;22.95;63.38;99862.97;6105747;23;20078;-82
2023/08/30 08:08:21;;;;;;;9.18;6.38;;;;;;;22.46;65.47;99895.03;6158658;23;20080;-81
2023/08/30 08:14:23;;;;;;;18.05;7.78;;;;;;;21.48;67.94;99895.97;6152750;23;20014;-82
2023/08/30 08:17:13;;;;;;;9.63;7.07;;;;;;;21.03;68.42;99878.28;6104256;23;20113;-82
2023/08/30 08:20:40;;;;;;;16.70;7.97;;;;;;;20.84;68.79;99874.22;6164687;23;20021;-79
2023/08/30 08:23:13;;;;;;;17.73;7.95;;;;;;;20.91;69.08;99880.19;6162850;23;20351;-82
2023/08/30 08:29:36;;;;;;;12.18;6.95;;;;;;;21.16;70.07;99898.41;6121844;23;20034;-82
2023/08/30 08:35:38;;;;;;;9.48;6.15;;;;;;;21.58;68.26;99858.03;6159136;23;20084;-78
2023/08/30 08:38:36;;;;;;;10.05;5.90;;;;;;;22.24;67.02;99866.81;6163899;23;20029;-80
2023/08/30 08:44:08;;;;;;;11.23;5.72;;;;;;;22.50;63.93;99834.84;6166928;23;20021;-81
2023/08/30 09:17:46;;;;;;;9.90;4.95;;;;;;;21.15;66.07;99854.25;6157690;23;20162;-86
2023/08/30 09:30:31;;;;;;;7.78;4.68;;;;;;;20.94;66.50;99823.06;6167135;23;20022;-83
2023/08/30 09:33:03;;;;;;;8.10;4.70;;;;;;;21.07;67.66;99862.63;6159288;23;20394;-78
2023/08/30 09:35:30;;;;;;;11.27;5.00;;;;;;;20.44;68.89;99832.63;6165208;23;20061;-79
2023/08/30 09:37:56;;;;;;;9.98;5.05;;;;;;;20.37;70.07;99855.88;6162185;23;20025;-81
2023/08/30 09:40:23;;;;;;;12.88;4.95;;;;;;;20.25;70.91;99843.69;6163687;23;20076;-81
2023/08/30 09:42:50;;;;;;;7.32;4.80;;;;;;;20.36;71.55;99861.41;6162733;23;20138;-80
2023/08/30 09:45:20;;;;;;;6.65;4.97;;;;;;;20.30;72.47;99852.56;6162863;23;20033;-81
2023/08/30 09:47:49;;;;;;;6.50;5.13;;;;;;;20.25;72.64;99851.69;6162486;23;20069;-82
2023/08/30 09:50:18;;;;;;;10.77;5.40;;;;;;;20.10;72.84;99847.69;6163412;23;20021;-81
2023/08/30 09:52:47;;;;;;;9.60;5.35;;;;;;;20.10;73.26;99847.69;6167941;23;20033;-80
2023/08/30 09:55:17;;;;;;;7.55;5.10;;;;;;;19.85;74.70;99844.53;6167301;23;20025;-82
2023/08/30 09:57:44;;;;;;;10.13;5.72;;;;;;;19.63;74.99;99856.84;6164299;23;20017;-82
2023/08/30 10:00:12;;;;;;;10.68;6.65;;;;;;;19.39;75.84;99848.84;6164766;23;20026;-81
2023/08/30 10:02:41;;;;;;;10.90;5.80;;;;;;;19.56;75.94;99843.69;6163767;23;20025;-83
2023/08/30 10:05:09;;;;;;;11.07;5.63;;;;;;;19.53;75.79;99833.53;6163739;23;20554;-81
2023/08/30 10:07:37;;;;;;;10.23;5.40;;;;;;;19.52;75.99;99840.69;6164249;23;20370;-83
2023/08/30 10:10:05;;;;;;;13.77;6.50;;;;;;;19.76;75.85;99832.69;6167140;23;20018;-83
2023/08/30 10:12:33;;;;;;;9.18;5.57;;;;;;;19.83;75.80;99828.06;6167057;23;20022;-82
2023/08/30 10:15:00;;;;;;;8.50;5.43;;;;;;;19.81;75.87;99828.28;6172751;23;20033;-82
2023/08/30 10:17:29;;;;;;;10.73;5.18;;;;;;;19.86;75.80;99825.72;6166130;23;20029;-79
2023/08/30 10:19:57;;;;;;;10.15;5.60;;;;;;;19.73;76.44;99825.19;6166832;23;20025;-82
2023/08/30 10:22:26;;;;;;;6.82;5.15;;;;;;;19.83;75.92;99814.78;6166011;23;20021;-80
2023/08/30 10:24:57;;;;;;;7.97;5.40;;;;;;;19.84;76.56;99821.69;6166503;23;20056;-81
2023/08/30 10:27:31;;;;;;;8.35;5.60;;;;;;;19.79;76.51;99826.91;6166296;23;20458;-82
2023/08/30 10:30:00;;;;;;;9.68;5.28;;;;;;;19.60;76.49;99820.94;6174589;23;20021;-82
2023/08/30 10:32:27;;;;;;;7.32;5.28;;;;;;;19.65;76.73;99820.25;6173653;23;20017;-82
2023/08/30 10:34:54;;;;;;;8.60;5.28;;;;;;;19.60;76.65;99815.63;6169133;23;20017;-82
2023/08/30 10:37:26;;;;;;;9.13;5.55;;;;;;;19.52;76.93;99818.66;6167768;23;20025;-81
2023/08/30 10:39:53;;;;;;;13.40;5.38;;;;;;;19.47;77.56;99814.00;6169066;23;20036;-83
2023/08/30 10:42:23;;;;;;;9.18;5.65;;;;;;;19.33;78.75;99817.97;6168782;23;20041;-83
2023/08/30 10:44:51;;;;;;;8.95;5.53;;;;;;;19.30;79.57;99829.06;6167994;23;20025;-81
2023/08/30 10:47:21;;;;;;;11.73;5.35;;;;;;;19.23;80.02;99815.91;6167543;23;20025;-83
2023/08/30 10:49:49;;;;;;;9.85;5.40;;;;;;;19.26;80.71;99840.34;6168609;23;20022;-80
2023/08/30 10:52:15;;;;;;;10.02;5.68;;;;;;;18.78;84.80;99867.88;6165216;23;20041;-81
2023/08/30 10:54:43;;;;;;;8.90;5.25;;;;;;;17.80;88.12;99882.22;6165321;23;20071;-80
2023/08/30 10:57:20;;;;;;;8.65;6.15;;;;;;;16.91;94.14;99901.16;6163842;23;20053;-80
2023/08/30 11:00:08;;;;;;;10.57;6.75;;;;;;;16.36;100.00;99900.03;6164776;23;20407;-78
2023/08/30 11:02:36;;;;;;;9.35;6.75;;;;;;;16.23;100.00;99904.38;6164317;23;20053;-80
2023/08/30 11:05:03;;;;;;;13.68;7.30;;;;;;;16.01;100.00;99910.16;6162759;23;20049;-79
2023/08/30 11:07:30;;;;;;;9.70;6.45;;;;;;;15.76;100.00;99899.47;6162121;23;20057;-78
2023/08/30 11:09:58;;;;;;;8.57;6.03;;;;;;;15.80;100.00;99901.50;6160641;23;20497;-79
2023/08/30 11:12:26;;;;;;;7.25;5.25;;;;;;;15.78;100.00;99903.53;6160553;23;20024;-78
2023/08/30 11:14:54;;;;;;;6.72;4.47;;;;;;;15.97;100.00;99888.66;6160268;23;20021;-79
2023/08/30 11:17:34;;;;;;;6.65;4.88;;;;;;;16.07;100.00;99899.56;6170945;23;20032;-83
2023/08/30 11:50:05;;;;;;;8.90;5.10;;;;;;;16.85;100.00;99865.81;6158092;23;20305;-88
2023/08/30 11:52:37;;;;;;;8.23;5.00;;;;;;;16.82;100.00;99876.81;6162512;23;20025;-88
2023/08/30 11:55:07;;;;;;;6.40;4.82;;;;;;;16.74;100.00;99866.50;6162046;23;20458;-88
2023/08/30 11:57:39;;;;;;;6.15;5.13;;;;;;;16.83;100.00;99878.44;6162703;23;20467;-88
2023/08/30 12:00:10;;;;;;;8.23;4.80;;;;;;;16.77;100.00;99868.72;6162841;23;20437;-88
2023/08/30 12:02:37;;;;;;;7.32;4.88;;;;;;;16.82;100.00;99883.94;6159326;23;20041;-86
2023/08/30 12:05:05;;;;;;;5.70;4.90;;;;;;;16.92;100.00;99898.28;6160790;23;20032;-85
2023/08/30 12:07:33;;;;;;;6.50;4.78;;;;;;;16.92;100.00;99893.00;6160574;23;20045;-85
2023/08/30 12:10:05;;;;;;;6.80;4.60;;;;;;;16.94;100.00;99899.91;6160778;23;20025;-85
2023/08/30 12:12:31;;;;;;;6.32;5.38;;;;;;;16.91;100.00;99895.84;6160168;23;20040;-85
2023/08/30 12:14:58;;;;;;;7.03;5.18;;;;;;;17.00;100.00;99893.78;6159473;23;20029;-85
2023/08/30 12:17:25;;;;;;;6.82;4.97;;;;;;;17.05;100.00;99901.84;6159095;23;20097;-85
2023/08/30 12:19:56;;;;;;;6.50;5.05;;;;;;;17.07;100.00;99911.16;6159092;23;20470;-86
2023/08/30 12:22:24;;;;;;;5.43;4.80;;;;;;;17.07;100.00;99889.22;6159384;23;20095;-86
2023/08/30 12:24:51;;;;;;;8.18;5.45;;;;;;;16.94;100.00;99903.38;6160731;23;20386;-86
2023/08/30 12:27:18;;;;;;;6.32;5.38;;;;;;;16.83;100.00;99904.84;6158862;23;20081;-85
2023/08/30 12:29:44;;;;;;;6.53;5.47;;;;;;;16.74;100.00;99905.31;6159319;23;20061;-85
2023/08/30 12:32:11;;;;;;;6.18;5.32;;;;;;;16.64;100.00;99903.16;6158177;23;20052;-86
2023/08/30 12:34:38;;;;;;;5.65;5.05;;;;;;;16.71;100.00;99914.47;6159081;23;20026;-85
2023/08/30 12:37:05;;;;;;;7.55;5.22;;;;;;;16.60;100.00;99918.56;6158339;23;20029;-85
2023/08/30 12:39:33;;;;;;;5.65;4.63;;;;;;;16.71;100.00;99911.03;6158778;23;20063;-85
2023/08/30 12:42:00;;;;;;;5.35;4.57;;;;;;;16.64;100.00;99907.59;6157887;23;20053;-83
2023/08/30 12:44:26;;;;;;;4.78;4.10;;;;;;;16.49;100.00;99902.63;6158378;23;20339;-85
2023/08/30 12:46:53;;;;;;;4.90;4.13;;;;;;;16.40;100.00;99906.53;6158750;23;20056;-85
2023/08/30 12:49:20;;;;;;;6.97;5.10;;;;;;;16.52;100.00;99918.03;6158652;23;20033;-86
2023/08/30 12:51:47;;;;;;;5.70;4.70;;;;;;;16.35;100.00;99906.34;6158265;23;20387;-84
2023/08/30 12:54:17;;;;;;;6.93;4.68;;;;;;;16.38;100.00;99921.75;6158361;23;20022;-84
2023/08/30 12:56:44;;;;;;;4.80;4.28;;;;;;;16.43;100.00;99914.03;6156679;23;20025;-85
2023/08/30 12:59:11;;;;;;;6.57;5.10;;;;;;;16.47;100.00;99917.88;6157684;23;20404;-85
2023/08/30 13:01:38;;;;;;;5.45;4.90;;;;;;;16.38;100.00;99921.75;6156792;23;20049;-85
2023/08/30 13:04:05;;;;;;;7.85;5.13;;;;;;;16.17;100.00;99914.94;6157560;23;20101;-85
2023/08/30 13:06:31;;;;;;;5.85;4.95;;;;;;;16.35;100.00;99922.19;6157565;23;20532;-84
2023/08/30 13:08:58;;;;;;;7.45;4.88;;;;;;;16.40;100.00;99920.53;6156964;23;20064;-84
2023/08/30 13:11:26;;;;;;;6.10;5.50;;;;;;;16.46;100.00;99918.88;6158085;23;20508;-85
2023/08/30 13:13:54;;;;;;;7.38;5.28;;;;;;;16.44;100.00;99919.09;6156882;23;20477;-85
2023/08/30 13:16:20;;;;;;;7.70;5.38;;;;;;;16.45;100.00;99906.69;6157338;23;20105;-85
2023/08/30 13:18:48;;;;;;;7.30;5.15;;;;;;;16.49;100.00;99915.81;6158097;23;20053;-85
2023/08/30 13:21:14;;;;;;;5.82;5.05;;;;;;;16.49;100.00;99921.91;6158351;23;20169;-84
2023/08/30 13:23:41;;;;;;;7.70;4.72;;;;;;;16.35;100.00;99908.97;6157710;23;20026;-84
2023/08/30 13:26:07;;;;;;;5.90;4.75;;;;;;;16.32;100.00;99906.75;6157187;23;20088;-84
2023/08/30 13:28:34;;;;;;;6.78;5.30;;;;;;;16.46;100.00;99914.41;6157656;23;20408;-83
2023/08/30 13:31:02;;;;;;;6.30;5.10;;;;;;;16.63;100.00;99913.91;6157784;23;20022;-83
2023/08/30 13:33:29;;;;;;;5.80;4.70;;;;;;;16.84;100.00;99906.47;6160183;23;20059;-84
2023/08/30 13:35:55;;;;;;;6.82;4.78;;;;;;;16.92;100.00;99892.19;6160022;23;20055;-84
2023/08/30 13:38:22;;;;;;;6.78;4.60;;;;;;;17.08;100.00;99901.41;6157995;23;20061;-84
2023/08/30 13:40:49;;;;;;;5.40;4.60;;;;;;;16.95;100.00;99888.31;6157523;23;20080;-84
2023/08/30 13:43:16;;;;;;;6.05;4.70;;;;;;;17.03;100.00;99877.44;6160139;23;20048;-85
2023/08/30 13:45:46;;;;;;;6.10;5.18;;;;;;;17.17;100.00;99873.69;6160195;23;20029;-86
2023/08/30 13:48:14;;;;;;;5.80;4.90;;;;;;;17.12;100.00;99870.88;6159556;23;20027;-85
2023/08/30 13:50:42;;;;;;;6.22;4.65;;;;;;;16.90;100.00;99868.63;6159327;23;20037;-84
2023/08/30 13:53:09;;;;;;;8.07;4.80;;;;;;;16.88;100.00;99865.38;6160386;23;20018;-85
2023/08/30 13:55:35;;;;;;;5.47;4.72;;;;;;;16.77;100.00;99870.56;6160519;23;20049;-85
2023/08/30 13:58:02;;;;;;;9.55;4.65;;;;;;;16.56;100.00;99883.03;6161372;23;20025;-84
2023/08/30 14:00:28;;;;;;;5.95;4.40;;;;;;;16.56;100.00;99896.25;6161471;23;20025;-85
2023/08/30 14:02:55;;;;;;;5.40;4.35;;;;;;;16.56;100.00;99903.38;6159744;23;20090;-85
2023/08/30 14:05:23;;;;;;;5.85;4.38;;;;;;;16.41;100.00;99906.31;6162185;23;20032;-84
2023/08/30 14:07:51;;;;;;;5.47;4.72;;;;;;;16.49;100.00;99918.47;6159891;23;20037;-84
2023/08/30 14:10:18;;;;;;;6.03;4.93;;;;;;;16.40;100.00;99903.88;6161136;23;20028;-85
2023/08/30 14:12:45;;;;;;;6.57;5.00;;;;;;;16.43;100.00;99914.03;6165941;23;20037;-84
2023/08/30 14:15:12;;;;;;;8.43;6.35;;;;;;;16.38;100.00;99908.56;6175552;23;20022;-84
2023/08/30 14:17:39;;;;;;;8.10;5.50;;;;;;;16.24;100.00;99907.81;6169295;23;20021;-84
2023/08/30 14:20:07;;;;;;;7.53;5.72;;;;;;;16.12;100.00;99910.28;6171975;23;20033;-84
2023/08/30 14:22:35;;;;;;;7.28;5.65;;;;;;;15.98;100.00;99921.94;6170633;23;20538;-84
2023/08/30 14:25:04;;;;;;;8.48;5.82;;;;;;;15.91;100.00;99923.78;6171280;23;20052;-84
2023/08/30 14:27:31;;;;;;;6.82;6.03;;;;;;;15.79;100.00;99933.34;6176003;23;20022;-84
2023/08/30 14:29:57;;;;;;;8.40;6.28;;;;;;;15.74;100.00;99938.44;6171760;23;20021;-84